Point Pleasant, NJ (08742)

10:06 AM EDT on October 23, 2014 (GMT -0400)
Jersey Shore Wx Center | Change Station
CLOSE
Current Station
Personal Weather Station
Location: Point Pleasant Beach, NJ
Elevation: 13 ft
Nearby Weather Stations

Elev 13 ft 40.09 °N, 74.05 °W | Updated 12 seconds ago

Rain
Rain
51.9 °F
Feels Like 51.9 °F
N
5.0
Wind Variable Wind from North
Gusts 14.0 mph

Today
High -- | Low -- °F
--% Chance of Precip.
Yesterday
High -- | Low -- °F
Precip. -- in
7:15 AM 6:05 PM
Waning Crescent, 0% visible
Pressure 29.70 in
Visibility 10.0 miles
Clouds Few 1200 ft
Overcast 1800 ft
Dew Point 50 °F
Humidity 92%
Rainfall 0.09 in
Snow Depth Not available.
UV 7.3 out of 12
Pollen .30 out of 12
Air Quality Not available.
Flu Activity Sporadic
METAR KBLM 231355Z AUTO 33011G17KT 10SM FEW012 OVC018 11/07 A2970 RMK AO1 P0002

More Conditions Fewer Conditions

Pressure 29.70 in
Visibility 10.0 miles
Clouds Few 1200 ft
Overcast 1800 ft
Dew Point 50 °F
Humidity 92%
Rainfall 0.09 in
Snow Depth Not available.
UV 7.3 out of 12
Pollen .30 out of 12
Air Quality Not available.
Flu Activity Sporadic
METAR KBLM 231355Z AUTO 33011G17KT 10SM FEW012 OVC018 11/07 A2970 RMK AO1 P0002

More Conditions Fewer Conditions

Nowcast | as of 8:51 am EDT on October 23, 2014

Areas of light rain will continue across portions of central to southern New Jersey, eastern Pennsylvania, and northern Delaware through this morning. Up to a few hundredths of an inch of rain can be expected, along with northwest winds from 10 to 20 mph, gusting at times to 25 mph. Temperatures will hold mostly in the upper 40s to lower 50s.

×

10-Day Weather Forecast

Almanac

Astronomy

Oct. 23, 2014 Rise Set
Actual Time 7:15 AM EDT 6:05 PM EDT
Civil Twilight 6:47 AM EDT 6:32 PM EDT
Nautical Twilight 6:16 AM EDT 7:04 PM EDT
Astronomical Twilight 5:44 AM EDT 7:35 PM EDT
Moon 6:52 AM EDT 6:05 PM EDT
Length of Visible Light 11h 45m
Length of Day
10h 49m
Tomorrow will be 2m 27s shorter.
Waning Crescent, 0% of the Moon is Illuminated
Today
Waning Crescent
Oct 23
New
Oct 30
First Quarter
Nov 6
Full
Nov 14
Last Quarter

Today's Extremes

State Highs State Lows

Community

WunderPhotos

Upload Photos

1,764,247 photos uploaded!

Nearby

Snow Depth

Station Depth Elevation
No new snow has been reported.

Earthquake Activity

City Distance Mag. Time & Date
No recent earthquake activity has been reported nearby.
Minimum magnitude displayed is 2.5.

Coastal Water Temperatures

Place Temperature
No Stations Reporting

Nearby Weather Stations